sensor_id;sensor_type;location;lat;lon;timestamp;pressure;altitude;pressure_sealevel;temperature;humidity
79544;BME280;68994;47.176;7.534;2023-06-24T00:01:26;96808.13;;;14.68;70.28
79544;BME280;68994;47.176;7.534;2023-06-24T00:03:53;96809.50;;;14.65;70.29
79544;BME280;68994;47.176;7.534;2023-06-24T00:06:19;96806.53;;;14.61;69.15
79544;BME280;68994;47.176;7.534;2023-06-24T00:08:48;96807.84;;;14.59;70.08
79544;BME280;68994;47.176;7.534;2023-06-24T00:11:15;96794.63;;;14.52;70.95
79544;BME280;68994;47.176;7.534;2023-06-24T00:13:42;96809.16;;;14.56;71.56
79544;BME280;68994;47.176;7.534;2023-06-24T00:16:09;96807.00;;;14.53;71.81
79544;BME280;68994;47.176;7.534;2023-06-24T00:18:37;96807.00;;;14.53;72.85
79544;BME280;68994;47.176;7.534;2023-06-24T00:21:06;96809.13;;;14.51;70.95
79544;BME280;68994;47.176;7.534;2023-06-24T00:23:33;96807.00;;;14.53;72.88
79544;BME280;68994;47.176;7.534;2023-06-24T00:26:00;96802.94;;;14.51;71.20
79544;BME280;68994;47.176;7.534;2023-06-24T00:28:27;96801.91;;;14.52;71.17
79544;BME280;68994;47.176;7.534;2023-06-24T00:30:54;96816.63;;;14.49;70.87
79544;BME280;68994;47.176;7.534;2023-06-24T00:33:20;96809.34;;;14.44;71.04
79544;BME280;68994;47.176;7.534;2023-06-24T00:35:48;96821.44;;;14.42;71.48
79544;BME280;68994;47.176;7.534;2023-06-24T00:38:15;96819.81;;;14.41;71.65
79544;BME280;68994;47.176;7.534;2023-06-24T00:40:41;96822.22;;;14.37;71.91
79544;BME280;68994;47.176;7.534;2023-06-24T00:43:08;96816.56;;;14.34;72.86
79544;BME280;68994;47.176;7.534;2023-06-24T00:45:36;96814.91;;;14.27;71.36
79544;BME280;68994;47.176;7.534;2023-06-24T00:48:03;96822.19;;;14.27;71.62
79544;BME280;68994;47.176;7.534;2023-06-24T00:50:30;96815.47;;;14.24;70.99
79544;BME280;68994;47.176;7.534;2023-06-24T00:52:58;96819.72;;;14.20;71.46
79544;BME280;68994;47.176;7.534;2023-06-24T00:55:24;96816.50;;;14.18;72.11
79544;BME280;68994;47.176;7.534;2023-06-24T00:57:54;96819.44;;;14.17;72.75
79544;BME280;68994;47.176;7.534;2023-06-24T01:00:21;96819.16;;;14.13;73.53
79544;BME280;68994;47.176;7.534;2023-06-24T01:02:49;96813.50;;;14.09;72.25
79544;BME280;68994;47.176;7.534;2023-06-24T01:05:16;96811.88;;;14.08;73.36
79544;BME280;68994;47.176;7.534;2023-06-24T01:07:43;96800.56;;;14.01;73.50
79544;BME280;68994;47.176;7.534;2023-06-24T01:10:11;96814.31;;;14.10;74.15
79544;BME280;68994;47.176;7.534;2023-06-24T01:12:40;96808.94;;;14.10;73.52
79544;BME280;68994;47.176;7.534;2023-06-24T01:15:10;96813.78;;;14.13;73.30
79544;BME280;68994;47.176;7.534;2023-06-24T01:17:41;96814.56;;;14.08;72.93
79544;BME280;68994;47.176;7.534;2023-06-24T01:20:11;96816.97;;;14.05;73.66
79544;BME280;68994;47.176;7.534;2023-06-24T01:25:56;96820.16;;;14.02;73.66
79544;BME280;68994;47.176;7.534;2023-06-24T01:28:53;96821.19;;;13.96;72.85
79544;BME280;68994;47.176;7.534;2023-06-24T01:31:34;96824.94;;;13.95;73.72
79544;BME280;68994;47.176;7.534;2023-06-24T01:34:12;96821.41;;;13.89;73.55
79544;BME280;68994;47.176;7.534;2023-06-24T01:36:45;96822.72;;;13.81;73.56
79544;BME280;68994;47.176;7.534;2023-06-24T01:39:16;96824.03;;;13.79;75.23
79544;BME280;68994;47.176;7.534;2023-06-24T01:41:48;96826.97;;;13.77;74.67
79544;BME280;68994;47.176;7.534;2023-06-24T01:44:16;96824.25;;;13.72;74.69
79544;BME280;68994;47.176;7.534;2023-06-24T01:46:48;96827.69;;;13.67;74.74
79544;BME280;68994;47.176;7.534;2023-06-24T01:49:16;96819.94;;;13.66;75.22
79544;BME280;68994;47.176;7.534;2023-06-24T01:51:44;96814.56;;;13.66;75.38
79544;BME280;68994;47.176;7.534;2023-06-24T01:54:15;96817.78;;;13.68;75.36
79544;BME280;68994;47.176;7.534;2023-06-24T01:56:45;96818.59;;;13.68;74.95
79544;BME280;68994;47.176;7.534;2023-06-24T01:59:15;96820.22;;;13.69;74.35
79544;BME280;68994;47.176;7.534;2023-06-24T02:01:43;96818.84;;;13.67;74.86
79544;BME280;68994;47.176;7.534;2023-06-24T02:04:13;96820.47;;;13.68;74.78
79544;BME280;68994;47.176;7.534;2023-06-24T02:06:42;96815.06;;;13.63;74.88
79544;BME280;68994;47.176;7.534;2023-06-24T02:09:10;96819.56;;;13.57;74.14
79544;BME280;68994;47.176;7.534;2023-06-24T02:11:38;96811.50;;;13.52;74.96
79544;BME280;68994;47.176;7.534;2023-06-24T02:14:06;96804.28;;;13.52;74.84
79544;BME280;68994;47.176;7.534;2023-06-24T02:16:35;96800.47;;;13.48;75.01
79544;BME280;68994;47.176;7.534;2023-06-24T02:19:02;96813.88;;;13.48;75.22
79544;BME280;68994;47.176;7.534;2023-06-24T02:21:33;96809.31;;;13.49;75.84
79544;BME280;68994;47.176;7.534;2023-06-24T02:24:01;96808.25;;;13.50;75.68
79544;BME280;68994;47.176;7.534;2023-06-24T02:26:29;96813.34;;;13.46;74.90
79544;BME280;68994;47.176;7.534;2023-06-24T02:28:55;96812.78;;;13.44;74.95
79544;BME280;68994;47.176;7.534;2023-06-24T02:31:22;96810.06;;;13.39;75.21
79544;BME280;68994;47.176;7.534;2023-06-24T02:33:49;96814.88;;;13.42;75.40
79544;BME280;68994;47.176;7.534;2023-06-24T02:36:16;96809.75;;;13.35;74.91
79544;BME280;68994;47.176;7.534;2023-06-24T02:38:44;96808.41;;;13.33;75.82
79544;BME280;68994;47.176;7.534;2023-06-24T02:41:10;96806.50;;;13.33;75.99
79544;BME280;68994;47.176;7.534;2023-06-24T02:43:37;96801.16;;;13.33;75.54
79544;BME280;68994;47.176;7.534;2023-06-24T02:46:05;96812.72;;;13.34;76.25
79544;BME280;68994;47.176;7.534;2023-06-24T02:48:34;96801.97;;;13.34;75.88
79544;BME280;68994;47.176;7.534;2023-06-24T02:51:03;96808.13;;;13.34;75.35
79544;BME280;68994;47.176;7.534;2023-06-24T02:53:31;96811.88;;;13.33;75.46
79544;BME280;68994;47.176;7.534;2023-06-24T02:56:00;96807.81;;;13.31;76.49
79544;BME280;68994;47.176;7.534;2023-06-24T02:58:29;96804.31;;;13.30;75.52
79544;BME280;68994;47.176;7.534;2023-06-24T03:00:58;96790.63;;;13.27;76.74
79544;BME280;68994;47.176;7.534;2023-06-24T03:03:26;96799.19;;;13.29;76.15
79544;BME280;68994;47.176;7.534;2023-06-24T03:05:54;96804.56;;;13.29;76.55
79544;BME280;68994;47.176;7.534;2023-06-24T03:08:22;96801.88;;;13.29;76.07
79544;BME280;68994;47.176;7.534;2023-06-24T03:10:49;96802.66;;;13.24;75.91
79544;BME280;68994;47.176;7.534;2023-06-24T03:13:17;96806.16;;;13.25;76.21
79544;BME280;68994;47.176;7.534;2023-06-24T03:15:44;96812.25;;;13.20;75.77
79544;BME280;68994;47.176;7.534;2023-06-24T03:18:10;96807.69;;;13.15;76.50
79544;BME280;68994;47.176;7.534;2023-06-24T03:20:37;96809.84;;;13.18;76.25
79544;BME280;68994;47.176;7.534;2023-06-24T03:23:05;96807.94;;;13.14;76.31
79544;BME280;68994;47.176;7.534;2023-06-24T03:25:32;96811.16;;;13.16;76.36
79544;BME280;68994;47.176;7.534;2023-06-24T03:27:58;96801.75;;;13.13;76.60
79544;BME280;68994;47.176;7.534;2023-06-24T03:30:27;96808.72;;;13.14;76.53
79544;BME280;68994;47.176;7.534;2023-06-24T03:32:54;96810.66;;;13.19;76.47
79544;BME280;68994;47.176;7.534;2023-06-24T03:35:20;96813.09;;;13.21;76.50
79544;BME280;68994;47.176;7.534;2023-06-24T03:37:47;96813.09;;;13.21;75.63
79544;BME280;68994;47.176;7.534;2023-06-24T03:40:14;96822.78;;;13.27;75.72
79544;BME280;68994;47.176;7.534;2023-06-24T03:42:41;96818.25;;;13.27;75.40
79544;BME280;68994;47.176;7.534;2023-06-24T03:45:07;96827.09;;;13.28;76.71
79544;BME280;68994;47.176;7.534;2023-06-24T03:47:35;96821.97;;;13.26;76.45
79544;BME280;68994;47.176;7.534;2023-06-24T03:50:04;96807.09;;;13.13;76.14
79544;BME280;68994;47.176;7.534;2023-06-24T03:52:31;96823.84;;;13.26;76.45
79544;BME280;68994;47.176;7.534;2023-06-24T03:54:58;96821.19;;;13.26;77.10
79544;BME280;68994;47.176;7.534;2023-06-24T03:57:26;96825.41;;;13.22;76.19
79544;BME280;68994;47.176;7.534;2023-06-24T03:59:53;96818.44;;;13.21;75.96
79544;BME280;68994;47.176;7.534;2023-06-24T04:02:19;96821.94;;;13.21;76.92
79544;BME280;68994;47.176;7.534;2023-06-24T04:04:48;96825.41;;;13.22;76.50
79544;BME280;68994;47.176;7.534;2023-06-24T04:07:16;96827.03;;;13.23;76.55
79544;BME280;68994;47.176;7.534;2023-06-24T04:09:54;96829.72;;;13.23;77.42
79544;BME280;68994;47.176;7.534;2023-06-24T04:12:21;96836.69;;;13.24;77.11
79544;BME280;68994;47.176;7.534;2023-06-24T04:14:47;96836.19;;;13.27;76.82
79544;BME280;68994;47.176;7.534;2023-06-24T04:17:14;96836.72;;;13.29;77.45
79544;BME280;68994;47.176;7.534;2023-06-24T04:19:41;96834.44;;;13.38;76.12
79544;BME280;68994;47.176;7.534;2023-06-24T04:22:09;96830.97;;;13.42;76.97
79544;BME280;68994;47.176;7.534;2023-06-24T04:24:35;96834.56;;;13.53;75.32
79544;BME280;68994;47.176;7.534;2023-06-24T04:27:02;96828.19;;;13.59;75.59
79544;BME280;68994;47.176;7.534;2023-06-24T04:29:29;96835.19;;;13.65;76.10
79544;BME280;68994;47.176;7.534;2023-06-24T04:31:56;96832.81;;;13.69;76.20
79544;BME280;68994;47.176;7.534;2023-06-24T04:34:22;96834.22;;;13.77;74.23
79544;BME280;68994;47.176;7.534;2023-06-24T04:36:49;96814.06;;;13.74;74.61
79544;BME280;68994;47.176;7.534;2023-06-24T04:39:17;96833.50;;;13.91;74.75
79544;BME280;68994;47.176;7.534;2023-06-24T04:41:43;96834.59;;;13.96;73.82
79544;BME280;68994;47.176;7.534;2023-06-24T04:44:10;96841.09;;;14.00;74.72
79544;BME280;68994;47.176;7.534;2023-06-24T04:46:36;96833.06;;;14.05;74.17
79544;BME280;68994;47.176;7.534;2023-06-24T04:49:05;96834.16;;;14.09;73.88
79544;BME280;68994;47.176;7.534;2023-06-24T04:51:32;96832.03;;;14.11;74.77
79544;BME280;68994;47.176;7.534;2023-06-24T04:53:58;96837.13;;;14.13;74.48
79544;BME280;68994;47.176;7.534;2023-06-24T04:56:27;96833.63;;;14.12;74.82
79544;BME280;68994;47.176;7.534;2023-06-24T04:58:54;96827.75;;;14.15;74.18
79544;BME280;68994;47.176;7.534;2023-06-24T05:01:21;96828.84;;;14.19;74.40
79544;BME280;68994;47.176;7.534;2023-06-24T05:03:48;96834.25;;;14.24;74.56
79544;BME280;68994;47.176;7.534;2023-06-24T05:06:14;96828.59;;;14.26;74.33
79544;BME280;68994;47.176;7.534;2023-06-24T05:08:41;96833.75;;;14.33;74.70
79544;BME280;68994;47.176;7.534;2023-06-24T05:11:07;96829.47;;;14.37;74.43
79544;BME280;68994;47.176;7.534;2023-06-24T05:13:35;96837.56;;;14.42;74.50
79544;BME280;68994;47.176;7.534;2023-06-24T05:16:02;96844.59;;;14.48;75.22
79544;BME280;68994;47.176;7.534;2023-06-24T05:18:28;96842.75;;;14.59;74.88
79544;BME280;68994;47.176;7.534;2023-06-24T05:20:55;96851.38;;;14.61;75.01
79544;BME280;68994;47.176;7.534;2023-06-24T05:23:21;96844.66;;;14.63;74.22
79544;BME280;68994;47.176;7.534;2023-06-24T05:25:48;96848.97;;;14.70;74.05
79544;BME280;68994;47.176;7.534;2023-06-24T05:28:15;96850.06;;;14.69;74.02
79544;BME280;68994;47.176;7.534;2023-06-24T05:30:44;96854.34;;;14.70;73.80
79544;BME280;68994;47.176;7.534;2023-06-24T05:33:11;96852.50;;;14.75;74.21
79544;BME280;68994;47.176;7.534;2023-06-24T05:35:37;96848.72;;;14.76;74.10
79544;BME280;68994;47.176;7.534;2023-06-24T05:38:06;96853.06;;;14.82;73.83
79544;BME280;68994;47.176;7.534;2023-06-24T05:40:32;96854.16;;;14.87;73.96
79544;BME280;68994;47.176;7.534;2023-06-24T05:42:59;96845.28;;;14.91;74.38
79544;BME280;68994;47.176;7.534;2023-06-24T05:45:28;96848.00;;;14.96;74.99
79544;BME280;68994;47.176;7.534;2023-06-24T05:47:56;96848.03;;;15.01;74.56
79544;BME280;68994;47.176;7.534;2023-06-24T05:50:22;96851.78;;;15.06;75.01
79544;BME280;68994;47.176;7.534;2023-06-24T05:52:49;96855.84;;;15.13;75.43
79544;BME280;68994;47.176;7.534;2023-06-24T05:55:16;96851.81;;;15.21;75.24
79544;BME280;68994;47.176;7.534;2023-06-24T05:57:42;96859.91;;;15.26;75.43
79544;BME280;68994;47.176;7.534;2023-06-24T06:00:10;96838.38;;;15.26;74.42
79544;BME280;68994;47.176;7.534;2023-06-24T06:02:36;96855.63;;;15.40;74.88
79544;BME280;68994;47.176;7.534;2023-06-24T06:05:05;96856.16;;;15.53;74.50
79544;BME280;68994;47.176;7.534;2023-06-24T06:07:31;96855.38;;;15.63;74.38
79544;BME280;68994;47.176;7.534;2023-06-24T06:09:58;96865.34;;;15.77;72.85
79544;BME280;68994;47.176;7.534;2023-06-24T06:12:26;96851.91;;;15.83;72.60
79544;BME280;68994;47.176;7.534;2023-06-24T06:14:52;96861.31;;;15.90;72.44
79544;BME280;68994;47.176;7.534;2023-06-24T06:17:19;96852.16;;;15.97;72.75
79544;BME280;68994;47.176;7.534;2023-06-24T06:19:45;96854.56;;;16.03;73.67
79544;BME280;68994;47.176;7.534;2023-06-24T06:22:13;96847.56;;;16.18;72.28
79544;BME280;68994;47.176;7.534;2023-06-24T06:24:40;96847.53;;;16.28;71.95
79544;BME280;68994;47.176;7.534;2023-06-24T06:27:09;96835.94;;;16.38;71.67
79544;BME280;68994;47.176;7.534;2023-06-24T06:29:35;96834.53;;;16.45;71.49
79544;BME280;68994;47.176;7.534;2023-06-24T06:32:02;96839.34;;;16.54;71.47
79544;BME280;68994;47.176;7.534;2023-06-24T06:34:30;96829.88;;;16.66;71.21
79544;BME280;68994;47.176;7.534;2023-06-24T06:36:56;96829.59;;;16.73;71.55
79544;BME280;68994;47.176;7.534;2023-06-24T06:39:24;96822.28;;;16.79;69.90
79544;BME280;68994;47.176;7.534;2023-06-24T06:41:51;96828.19;;;16.91;68.67
79544;BME280;68994;47.176;7.534;2023-06-24T06:44:17;96823.56;;;16.97;68.21
79544;BME280;68994;47.176;7.534;2023-06-24T06:46:44;96820.31;;;17.00;69.13
79544;BME280;68994;47.176;7.534;2023-06-24T06:49:11;96827.31;;;17.06;69.20
79544;BME280;68994;47.176;7.534;2023-06-24T06:51:37;96827.78;;;17.13;67.73
79544;BME280;68994;47.176;7.534;2023-06-24T06:54:04;96836.88;;;17.22;67.50
79544;BME280;68994;47.176;7.534;2023-06-24T06:56:32;96830.31;;;17.39;67.20
79544;BME280;68994;47.176;7.534;2023-06-24T06:58:58;96833.53;;;17.41;67.15
79544;BME280;68994;47.176;7.534;2023-06-24T07:01:25;96827.53;;;17.49;67.34
79544;BME280;68994;47.176;7.534;2023-06-24T07:03:51;96825.38;;;17.51;67.67
79544;BME280;68994;47.176;7.534;2023-06-24T07:06:18;96822.94;;;17.55;66.87
79544;BME280;68994;47.176;7.534;2023-06-24T07:08:45;96823.16;;;17.58;66.68
79544;BME280;68994;47.176;7.534;2023-06-24T07:11:12;96814.97;;;17.69;66.61
79544;BME280;68994;47.176;7.534;2023-06-24T07:13:40;96810.00;;;17.81;65.34
79544;BME280;68994;47.176;7.534;2023-06-24T07:16:06;96818.53;;;17.98;65.57
79544;BME280;68994;47.176;7.534;2023-06-24T07:18:33;96814.31;;;18.11;65.44
79544;BME280;68994;47.176;7.534;2023-06-24T07:21:00;96815.94;;;18.12;65.00
79544;BME280;68994;47.176;7.534;2023-06-24T07:23:26;96808.84;;;18.22;64.37
79544;BME280;68994;47.176;7.534;2023-06-24T07:25:53;96804.25;;;18.22;64.76
79544;BME280;68994;47.176;7.534;2023-06-24T07:28:20;96803.59;;;18.30;66.30
79544;BME280;68994;47.176;7.534;2023-06-24T07:30:48;96805.63;;;18.44;64.36
79544;BME280;68994;47.176;7.534;2023-06-24T07:33:15;96802.72;;;18.59;64.38
79544;BME280;68994;47.176;7.534;2023-06-24T07:35:41;96798.13;;;18.60;63.82
79544;BME280;68994;47.176;7.534;2023-06-24T07:38:08;96804.00;;;18.67;63.55
79544;BME280;68994;47.176;7.534;2023-06-24T07:40:34;96799.59;;;18.71;63.46
79544;BME280;68994;47.176;7.534;2023-06-24T07:43:01;96796.53;;;18.78;64.34
79544;BME280;68994;47.176;7.534;2023-06-24T07:45:28;96786.25;;;18.80;63.83
79544;BME280;68994;47.176;7.534;2023-06-24T07:47:56;96785.34;;;18.89;64.44
79544;BME280;68994;47.176;7.534;2023-06-24T07:50:23;96790.81;;;19.03;63.21
79544;BME280;68994;47.176;7.534;2023-06-24T07:52:49;96775.75;;;19.16;62.24
79544;BME280;68994;47.176;7.534;2023-06-24T07:55:16;96787.38;;;19.36;62.43
79544;BME280;68994;47.176;7.534;2023-06-24T07:57:44;96779.38;;;19.44;61.46
79544;BME280;68994;47.176;7.534;2023-06-24T08:00:12;96774.47;;;19.46;61.27
79544;BME280;68994;47.176;7.534;2023-06-24T08:02:40;96784.84;;;19.58;61.74
79544;BME280;68994;47.176;7.534;2023-06-24T08:05:08;96773.47;;;19.75;59.25
79544;BME280;68994;47.176;7.534;2023-06-24T08:07:35;96763.28;;;19.86;61.30
79544;BME280;68994;47.176;7.534;2023-06-24T08:10:03;96770.28;;;19.87;59.19
79544;BME280;68994;47.176;7.534;2023-06-24T08:12:29;96768.72;;;20.14;58.11
79544;BME280;68994;47.176;7.534;2023-06-24T08:14:56;96763.00;;;20.15;57.35
79544;BME280;68994;47.176;7.534;2023-06-24T08:17:22;96761.50;;;20.23;57.73
79544;BME280;68994;47.176;7.534;2023-06-24T08:19:49;96752.25;;;20.38;56.07
79544;BME280;68994;47.176;7.534;2023-06-24T08:22:17;96752.84;;;20.49;56.97
79544;BME280;68994;47.176;7.534;2023-06-24T08:24:44;96736.38;;;20.45;55.20
79544;BME280;68994;47.176;7.534;2023-06-24T08:27:10;96751.22;;;20.62;54.73
79544;BME280;68994;47.176;7.534;2023-06-24T08:29:37;96750.22;;;20.57;54.73
79544;BME280;68994;47.176;7.534;2023-06-24T08:32:04;96737.00;;;20.70;53.06
79544;BME280;68994;47.176;7.534;2023-06-24T08:34:32;96732.72;;;20.78;51.40
79544;BME280;68994;47.176;7.534;2023-06-24T08:36:58;96736.34;;;20.87;53.71
79544;BME280;68994;47.176;7.534;2023-06-24T08:39:26;96726.47;;;20.91;52.02
79544;BME280;68994;47.176;7.534;2023-06-24T08:41:53;96740.34;;;20.89;54.28
79544;BME280;68994;47.176;7.534;2023-06-24T08:44:20;96737.47;;;21.08;54.85
79544;BME280;68994;47.176;7.534;2023-06-24T08:46:46;96740.25;;;21.17;54.38
79544;BME280;68994;47.176;7.534;2023-06-24T08:49:19;96737.47;;;21.31;52.90
79544;BME280;68994;47.176;7.534;2023-06-24T08:51:51;96735.56;;;21.31;52.14
79544;BME280;68994;47.176;7.534;2023-06-24T08:54:21;96735.94;;;21.39;51.63
79544;BME280;68994;47.176;7.534;2023-06-24T08:56:50;96737.53;;;21.40;51.90
79544;BME280;68994;47.176;7.534;2023-06-24T08:59:17;96734.69;;;21.45;51.45
79544;BME280;68994;47.176;7.534;2023-06-24T09:01:45;96733.97;;;21.53;52.62
79544;BME280;68994;47.176;7.534;2023-06-24T09:04:12;96726.19;;;21.60;49.03
79544;BME280;68994;47.176;7.534;2023-06-24T09:06:39;96722.72;;;21.68;49.45
79544;BME280;68994;47.176;7.534;2023-06-24T09:09:17;96724.06;;;21.80;50.46
79544;BME280;68994;47.176;7.534;2023-06-24T09:11:52;96717.38;;;21.86;49.34
79544;BME280;68994;47.176;7.534;2023-06-24T09:14:19;96718.56;;;22.02;48.60
79544;BME280;68994;47.176;7.534;2023-06-24T09:16:51;96723.41;;;22.14;48.23
79544;BME280;68994;47.176;7.534;2023-06-24T09:19:20;96712.59;;;22.32;47.24
79544;BME280;68994;47.176;7.534;2023-06-24T09:21:47;96714.84;;;22.30;47.85
79544;BME280;68994;47.176;7.534;2023-06-24T09:24:13;96712.97;;;22.39;47.91
79544;BME280;68994;47.176;7.534;2023-06-24T09:26:42;96719.19;;;22.48;47.79
79544;BME280;68994;47.176;7.534;2023-06-24T09:29:11;96721.94;;;22.66;49.57
79544;BME280;68994;47.176;7.534;2023-06-24T09:31:47;96694.28;;;23.07;45.87
79544;BME280;68994;47.176;7.534;2023-06-24T09:34:13;96700.34;;;23.39;46.84
79544;BME280;68994;47.176;7.534;2023-06-24T09:36:42;96709.44;;;24.08;45.96
79544;BME280;68994;47.176;7.534;2023-06-24T09:39:09;96702.06;;;25.10;43.65
79544;BME280;68994;47.176;7.534;2023-06-24T09:41:35;96707.69;;;26.79;37.83
79544;BME280;68994;47.176;7.534;2023-06-24T09:44:02;96701.00;;;28.57;33.30
79544;BME280;68994;47.176;7.534;2023-06-24T09:46:36;96700.31;;;30.24;30.88
79544;BME280;68994;47.176;7.534;2023-06-24T09:49:03;96707.59;;;31.19;29.68
79544;BME280;68994;47.176;7.534;2023-06-24T09:51:31;96700.13;;;31.98;25.16
79544;BME280;68994;47.176;7.534;2023-06-24T09:53:58;96703.69;;;32.47;25.93
79544;BME280;68994;47.176;7.534;2023-06-24T09:56:25;96697.69;;;32.94;24.43
79544;BME280;68994;47.176;7.534;2023-06-24T09:58:52;96689.63;;;33.55;25.10
79544;BME280;68994;47.176;7.534;2023-06-24T10:01:18;96694.03;;;33.74;23.94
79544;BME280;68994;47.176;7.534;2023-06-24T10:03:46;96689.31;;;34.10;23.66
79544;BME280;68994;47.176;7.534;2023-06-24T10:06:14;96692.88;;;34.11;23.66
79544;BME280;68994;47.176;7.534;2023-06-24T10:08:40;96686.94;;;34.09;23.68
79544;BME280;68994;47.176;7.534;2023-06-24T10:11:07;96681.00;;;34.46;23.78
79544;BME280;68994;47.176;7.534;2023-06-24T10:13:34;96679.41;;;34.60;24.17
79544;BME280;68994;47.176;7.534;2023-06-24T10:16:00;96685.72;;;34.64;22.30
79544;BME280;68994;47.176;7.534;2023-06-24T10:18:35;96682.16;;;34.74;23.14
79544;BME280;68994;47.176;7.534;2023-06-24T10:21:03;96674.13;;;34.98;21.48
79544;BME280;68994;47.176;7.534;2023-06-24T10:23:32;96683.59;;;35.18;21.78
79544;BME280;68994;47.176;7.534;2023-06-24T10:25:59;96676.44;;;35.17;22.20
79544;BME280;68994;47.176;7.534;2023-06-24T10:28:26;96665.84;;;34.90;22.27
79544;BME280;68994;47.176;7.534;2023-06-24T10:30:56;96677.13;;;35.43;22.44
79544;BME280;68994;47.176;7.534;2023-06-24T10:33:23;96666.97;;;35.89;21.67
79544;BME280;68994;47.176;7.534;2023-06-24T10:35:50;96666.72;;;35.61;22.18
79544;BME280;68994;47.176;7.534;2023-06-24T10:38:19;96651.59;;;35.73;22.97
79544;BME280;68994;47.176;7.534;2023-06-24T10:40:48;96654.22;;;35.91;21.70
79544;BME280;68994;47.176;7.534;2023-06-24T10:43:28;96651.41;;;35.98;22.21
79544;BME280;68994;47.176;7.534;2023-06-24T10:45:57;96636.91;;;36.25;21.58
79544;BME280;68994;47.176;7.534;2023-06-24T10:48:24;96647.19;;;36.28;20.06
79544;BME280;68994;47.176;7.534;2023-06-24T10:50:51;96632.84;;;36.33;20.87
79544;BME280;68994;47.176;7.534;2023-06-24T10:53:18;96630.06;;;36.33;20.86
79544;BME280;68994;47.176;7.534;2023-06-24T10:55:45;96634.88;;;36.67;22.35
79544;BME280;68994;47.176;7.534;2023-06-24T10:58:14;96618.88;;;36.79;20.66
79544;BME280;68994;47.176;7.534;2023-06-24T11:00:41;96626.53;;;37.02;21.67
79544;BME280;68994;47.176;7.534;2023-06-24T11:03:11;96612.22;;;36.72;19.64
79544;BME280;68994;47.176;7.534;2023-06-24T11:05:39;96624.38;;;36.86;20.55
79544;BME280;68994;47.176;7.534;2023-06-24T11:08:06;96615.66;;;36.80;20.68
79544;BME280;68994;47.176;7.534;2023-06-24T11:10:34;96618.22;;;36.98;20.91
79544;BME280;68994;47.176;7.534;2023-06-24T11:13:07;96608.34;;;36.93;19.96
79544;BME280;68994;47.176;7.534;2023-06-24T11:15:34;96605.97;;;37.26;20.06
79544;BME280;68994;47.176;7.534;2023-06-24T11:18:01;96606.28;;;37.32;19.08
79544;BME280;68994;47.176;7.534;2023-06-24T11:20:28;96604.41;;;37.53;21.35
79544;BME280;68994;47.176;7.534;2023-06-24T11:22:54;96600.81;;;37.25;19.75
79544;BME280;68994;47.176;7.534;2023-06-24T11:25:21;96590.84;;;37.55;20.63
79544;BME280;68994;47.176;7.534;2023-06-24T11:27:51;96593.66;;;37.78;19.96
79544;BME280;68994;47.176;7.534;2023-06-24T11:30:18;96581.91;;;37.67;19.02
79544;BME280;68994;47.176;7.534;2023-06-24T11:32:45;96585.38;;;37.47;20.14
79544;BME280;68994;47.176;7.534;2023-06-24T11:35:13;96595.97;;;37.56;18.55
79544;BME280;68994;47.176;7.534;2023-06-24T11:37:41;96581.16;;;38.10;19.68
79544;BME280;68994;47.176;7.534;2023-06-24T11:40:09;96567.63;;;37.89;19.33
79544;BME280;68994;47.176;7.534;2023-06-24T11:42:37;96588.88;;;37.79;18.51
79544;BME280;68994;47.176;7.534;2023-06-24T11:45:08;96583.91;;;37.39;18.32
79544;BME280;68994;47.176;7.534;2023-06-24T11:47:38;96587.19;;;37.34;19.57
79544;BME280;68994;47.176;7.534;2023-06-24T11:50:06;96586.56;;;36.88;20.50
79544;BME280;68994;47.176;7.534;2023-06-24T11:52:38;96581.84;;;37.43;22.35
79544;BME280;68994;47.176;7.534;2023-06-24T11:55:11;96572.69;;;37.19;19.27
79544;BME280;68994;47.176;7.534;2023-06-24T11:57:50;96579.41;;;37.18;19.68
79544;BME280;68994;47.176;7.534;2023-06-24T12:00:20;96581.97;;;37.36;20.25
79544;BME280;68994;47.176;7.534;2023-06-24T12:02:58;96579.66;;;37.31;19.12
79544;BME280;68994;47.176;7.534;2023-06-24T12:05:27;96569.72;;;37.30;19.83
79544;BME280;68994;47.176;7.534;2023-06-24T12:07:55;96565.16;;;37.43;21.24
79544;BME280;68994;47.176;7.534;2023-06-24T12:10:22;96567.34;;;37.56;19.97
79544;BME280;68994;47.176;7.534;2023-06-24T12:12:49;96547.34;;;37.10;18.62
79544;BME280;68994;47.176;7.534;2023-06-24T12:15:16;96556.38;;;36.56;19.64
79544;BME280;68994;47.176;7.534;2023-06-24T12:17:44;96553.81;;;36.72;22.93
79544;BME280;68994;47.176;7.534;2023-06-24T12:20:11;96550.00;;;36.90;22.40
79544;BME280;68994;47.176;7.534;2023-06-24T12:22:39;96539.22;;;36.61;20.67
79544;BME280;68994;47.176;7.534;2023-06-24T12:25:06;96541.31;;;36.53;19.83
79544;BME280;68994;47.176;7.534;2023-06-24T12:27:33;96540.97;;;36.48;19.39
79544;BME280;68994;47.176;7.534;2023-06-24T12:30:00;96534.41;;;36.65;21.65
79544;BME280;68994;47.176;7.534;2023-06-24T12:32:26;96540.13;;;36.85;19.21
79544;BME280;68994;47.176;7.534;2023-06-24T12:34:54;96535.78;;;36.50;21.75
79544;BME280;68994;47.176;7.534;2023-06-24T12:37:21;96535.31;;;36.24;20.82
79544;BME280;68994;47.176;7.534;2023-06-24T12:39:48;96535.75;;;36.53;21.99
79544;BME280;68994;47.176;7.534;2023-06-24T12:42:16;96533.00;;;36.15;18.78
79544;BME280;68994;47.176;7.534;2023-06-24T12:44:42;96522.94;;;35.91;18.56
79544;BME280;68994;47.176;7.534;2023-06-24T12:47:09;96523.19;;;36.03;21.78
79544;BME280;68994;47.176;7.534;2023-06-24T12:49:35;96524.06;;;36.35;21.92
79544;BME280;68994;47.176;7.534;2023-06-24T12:52:04;96524.03;;;36.38;21.60
79544;BME280;68994;47.176;7.534;2023-06-24T12:54:30;96518.53;;;36.31;21.21
79544;BME280;68994;47.176;7.534;2023-06-24T12:56:57;96522.81;;;36.01;21.57
79544;BME280;68994;47.176;7.534;2023-06-24T12:59:23;96515.78;;;35.93;21.50
79544;BME280;68994;47.176;7.534;2023-06-24T13:01:50;96515.16;;;35.71;21.15
79544;BME280;68994;47.176;7.534;2023-06-24T13:04:17;96515.44;;;35.39;22.19
79544;BME280;68994;47.176;7.534;2023-06-24T13:06:45;96520.88;;;35.53;20.54